sensor_id;sensor_type;location;lat;lon;timestamp;temperature;humidity
5560;DHT22;2803;47.916;8.074;2022-12-18T00:00:04;-4.50;99.90
5560;DHT22;2803;47.916;8.074;2022-12-18T00:02:31;-4.60;99.90
5560;DHT22;2803;47.916;8.074;2022-12-18T00:04:59;-4.70;99.90
5560;DHT22;2803;47.916;8.074;2022-12-18T00:07:26;-4.50;99.90
5560;DHT22;2803;47.916;8.074;2022-12-18T00:09:52;-4.80;99.90
5560;DHT22;2803;47.916;8.074;2022-12-18T00:12:19;-4.80;99.90
5560;DHT22;2803;47.916;8.074;2022-12-18T00:14:47;-4.80;99.90
5560;DHT22;2803;47.916;8.074;2022-12-18T00:17:13;-4.70;99.90
5560;DHT22;2803;47.916;8.074;2022-12-18T00:19:40;-4.90;99.90
5560;DHT22;2803;47.916;8.074;2022-12-18T00:22:06;-4.90;99.90
5560;DHT22;2803;47.916;8.074;2022-12-18T00:24:33;-4.80;99.90
5560;DHT22;2803;47.916;8.074;2022-12-18T00:27:00;-4.90;99.90
5560;DHT22;2803;47.916;8.074;2022-12-18T00:29:26;-4.70;99.90
5560;DHT22;2803;47.916;8.074;2022-12-18T00:31:54;-5.10;99.90
5560;DHT22;2803;47.916;8.074;2022-12-18T00:34:21;-4.80;99.90
5560;DHT22;2803;47.916;8.074;2022-12-18T00:36:48;-4.90;99.90
5560;DHT22;2803;47.916;8.074;2022-12-18T00:39:14;-5.20;99.90
5560;DHT22;2803;47.916;8.074;2022-12-18T00:41:41;-5.20;99.90
5560;DHT22;2803;47.916;8.074;2022-12-18T00:44:21;-5.10;99.90
5560;DHT22;2803;47.916;8.074;2022-12-18T00:46:48;-5.50;99.90
5560;DHT22;2803;47.916;8.074;2022-12-18T00:49:17;-5.40;99.90
5560;DHT22;2803;47.916;8.074;2022-12-18T00:51:44;-5.40;99.90
5560;DHT22;2803;47.916;8.074;2022-12-18T00:54:11;-5.30;99.90
5560;DHT22;2803;47.916;8.074;2022-12-18T00:56:39;-5.20;99.90
5560;DHT22;2803;47.916;8.074;2022-12-18T00:59:06;-5.50;99.90
5560;DHT22;2803;47.916;8.074;2022-12-18T01:01:33;-5.60;99.90
5560;DHT22;2803;47.916;8.074;2022-12-18T01:04:00;-5.50;99.90
5560;DHT22;2803;47.916;8.074;2022-12-18T01:06:29;-5.70;99.90
5560;DHT22;2803;47.916;8.074;2022-12-18T01:08:56;-5.90;99.90
5560;DHT22;2803;47.916;8.074;2022-12-18T01:11:23;-5.70;99.90
5560;DHT22;2803;47.916;8.074;2022-12-18T01:13:51;-5.80;99.90
5560;DHT22;2803;47.916;8.074;2022-12-18T01:16:18;-5.80;99.90
5560;DHT22;2803;47.916;8.074;2022-12-18T01:18:45;-5.70;99.90
5560;DHT22;2803;47.916;8.074;2022-12-18T01:21:13;-5.40;99.90
5560;DHT22;2803;47.916;8.074;2022-12-18T01:23:42;-5.40;99.90
5560;DHT22;2803;47.916;8.074;2022-12-18T01:26:10;-5.20;99.90
5560;DHT22;2803;47.916;8.074;2022-12-18T01:28:37;-5.10;99.90
5560;DHT22;2803;47.916;8.074;2022-12-18T01:31:13;-5.60;99.90
5560;DHT22;2803;47.916;8.074;2022-12-18T01:33:40;-5.70;99.90
5560;DHT22;2803;47.916;8.074;2022-12-18T01:36:07;-5.60;99.90
5560;DHT22;2803;47.916;8.074;2022-12-18T01:38:34;-5.50;99.90
5560;DHT22;2803;47.916;8.074;2022-12-18T01:41:02;-5.40;99.90
5560;DHT22;2803;47.916;8.074;2022-12-18T01:43:45;-5.20;99.90
5560;DHT22;2803;47.916;8.074;2022-12-18T01:46:13;-5.70;99.90
5560;DHT22;2803;47.916;8.074;2022-12-18T01:48:40;-6.00;99.90
5560;DHT22;2803;47.916;8.074;2022-12-18T01:51:09;-5.80;99.90
5560;DHT22;2803;47.916;8.074;2022-12-18T01:53:37;-5.60;99.90
5560;DHT22;2803;47.916;8.074;2022-12-18T01:56:07;-5.80;99.90
5560;DHT22;2803;47.916;8.074;2022-12-18T01:58:39;-6.20;99.90
5560;DHT22;2803;47.916;8.074;2022-12-18T02:01:09;-6.40;99.90
5560;DHT22;2803;47.916;8.074;2022-12-18T02:03:36;-6.40;99.90
5560;DHT22;2803;47.916;8.074;2022-12-18T02:06:09;-5.90;99.90
5560;DHT22;2803;47.916;8.074;2022-12-18T02:08:40;-5.60;99.90
5560;DHT22;2803;47.916;8.074;2022-12-18T02:11:18;-5.70;99.90
5560;DHT22;2803;47.916;8.074;2022-12-18T02:13:53;-5.60;99.90
5560;DHT22;2803;47.916;8.074;2022-12-18T02:16:27;-5.80;99.90
5560;DHT22;2803;47.916;8.074;2022-12-18T02:18:58;-6.10;99.90
5560;DHT22;2803;47.916;8.074;2022-12-18T02:21:40;-6.10;99.90
5560;DHT22;2803;47.916;8.074;2022-12-18T02:24:20;-5.90;99.90
5560;DHT22;2803;47.916;8.074;2022-12-18T02:26:55;-6.00;99.90
5560;DHT22;2803;47.916;8.074;2022-12-18T02:29:25;-6.00;99.90
5560;DHT22;2803;47.916;8.074;2022-12-18T02:31:56;-6.00;99.90
5560;DHT22;2803;47.916;8.074;2022-12-18T02:34:26;-5.80;99.90
5560;DHT22;2803;47.916;8.074;2022-12-18T02:36:54;-5.80;99.90
5560;DHT22;2803;47.916;8.074;2022-12-18T02:39:22;-5.90;99.90
5560;DHT22;2803;47.916;8.074;2022-12-18T02:41:52;-5.90;99.90
5560;DHT22;2803;47.916;8.074;2022-12-18T02:44:18;-6.00;99.90
5560;DHT22;2803;47.916;8.074;2022-12-18T02:46:48;-6.00;99.90
5560;DHT22;2803;47.916;8.074;2022-12-18T02:49:26;-6.10;99.90
5560;DHT22;2803;47.916;8.074;2022-12-18T02:51:58;-6.20;99.90
5560;DHT22;2803;47.916;8.074;2022-12-18T02:54:41;-6.20;99.90
5560;DHT22;2803;47.916;8.074;2022-12-18T02:57:16;-6.20;99.90
5560;DHT22;2803;47.916;8.074;2022-12-18T02:59:51;-5.90;99.90
5560;DHT22;2803;47.916;8.074;2022-12-18T03:02:24;-6.20;99.90
5560;DHT22;2803;47.916;8.074;2022-12-18T03:04:59;-5.90;99.90
5560;DHT22;2803;47.916;8.074;2022-12-18T03:07:34;-6.00;99.90
5560;DHT22;2803;47.916;8.074;2022-12-18T03:10:02;-6.20;99.90
5560;DHT22;2803;47.916;8.074;2022-12-18T03:12:32;-6.10;99.90
5560;DHT22;2803;47.916;8.074;2022-12-18T03:15:03;-6.10;99.90
5560;DHT22;2803;47.916;8.074;2022-12-18T03:17:32;-6.00;99.90
5560;DHT22;2803;47.916;8.074;2022-12-18T03:20:03;-6.00;99.90
5560;DHT22;2803;47.916;8.074;2022-12-18T03:22:33;-6.00;99.90
5560;DHT22;2803;47.916;8.074;2022-12-18T03:25:02;-5.90;99.90
5560;DHT22;2803;47.916;8.074;2022-12-18T03:27:32;-6.00;99.90
5560;DHT22;2803;47.916;8.074;2022-12-18T03:30:02;-5.90;99.90
5560;DHT22;2803;47.916;8.074;2022-12-18T03:32:38;-5.90;99.90
5560;DHT22;2803;47.916;8.074;2022-12-18T03:35:07;-5.80;99.90
5560;DHT22;2803;47.916;8.074;2022-12-18T03:37:34;-6.00;99.90
5560;DHT22;2803;47.916;8.074;2022-12-18T03:40:01;-5.90;99.90
5560;DHT22;2803;47.916;8.074;2022-12-18T03:42:32;-6.00;99.90
5560;DHT22;2803;47.916;8.074;2022-12-18T03:45:07;-5.80;99.90
5560;DHT22;2803;47.916;8.074;2022-12-18T03:47:39;-5.80;99.90
5560;DHT22;2803;47.916;8.074;2022-12-18T03:50:12;-6.20;99.90
5560;DHT22;2803;47.916;8.074;2022-12-18T03:52:44;-5.90;99.90
5560;DHT22;2803;47.916;8.074;2022-12-18T03:55:13;-6.00;99.90
5560;DHT22;2803;47.916;8.074;2022-12-18T03:57:41;-5.90;99.90
5560;DHT22;2803;47.916;8.074;2022-12-18T04:00:11;-5.60;99.90
5560;DHT22;2803;47.916;8.074;2022-12-18T04:02:43;-5.50;99.90
5560;DHT22;2803;47.916;8.074;2022-12-18T04:05:12;-5.60;99.90
5560;DHT22;2803;47.916;8.074;2022-12-18T04:07:39;-5.70;99.90
5560;DHT22;2803;47.916;8.074;2022-12-18T04:10:08;-5.80;99.90
5560;DHT22;2803;47.916;8.074;2022-12-18T04:12:38;-6.10;99.90
5560;DHT22;2803;47.916;8.074;2022-12-18T04:15:07;-5.90;99.90
5560;DHT22;2803;47.916;8.074;2022-12-18T04:17:34;-6.10;99.90
5560;DHT22;2803;47.916;8.074;2022-12-18T04:20:01;-6.00;99.90
5560;DHT22;2803;47.916;8.074;2022-12-18T04:22:28;-5.90;99.90
5560;DHT22;2803;47.916;8.074;2022-12-18T04:24:54;-5.70;99.90
5560;DHT22;2803;47.916;8.074;2022-12-18T04:27:21;-6.00;99.90
5560;DHT22;2803;47.916;8.074;2022-12-18T04:29:48;-5.80;99.90
5560;DHT22;2803;47.916;8.074;2022-12-18T04:32:15;-5.80;99.90
5560;DHT22;2803;47.916;8.074;2022-12-18T04:34:42;-5.50;99.90
5560;DHT22;2803;47.916;8.074;2022-12-18T04:37:09;-5.40;99.90
5560;DHT22;2803;47.916;8.074;2022-12-18T04:39:36;-5.30;99.90
5560;DHT22;2803;47.916;8.074;2022-12-18T04:42:03;-5.60;99.90
5560;DHT22;2803;47.916;8.074;2022-12-18T04:44:29;-5.70;99.90
5560;DHT22;2803;47.916;8.074;2022-12-18T04:46:56;-5.70;99.90
5560;DHT22;2803;47.916;8.074;2022-12-18T04:49:24;-5.50;99.90
5560;DHT22;2803;47.916;8.074;2022-12-18T04:51:51;-5.40;99.90
5560;DHT22;2803;47.916;8.074;2022-12-18T04:54:18;-5.50;99.90
5560;DHT22;2803;47.916;8.074;2022-12-18T04:56:45;-5.50;99.90
5560;DHT22;2803;47.916;8.074;2022-12-18T04:59:11;-5.30;99.90
5560;DHT22;2803;47.916;8.074;2022-12-18T05:01:38;-5.40;99.90
5560;DHT22;2803;47.916;8.074;2022-12-18T05:04:05;-5.30;99.90
5560;DHT22;2803;47.916;8.074;2022-12-18T05:06:33;-5.20;99.90
5560;DHT22;2803;47.916;8.074;2022-12-18T05:08:59;-5.40;99.90
5560;DHT22;2803;47.916;8.074;2022-12-18T05:11:26;-5.30;99.90
5560;DHT22;2803;47.916;8.074;2022-12-18T05:13:52;-5.20;99.90
5560;DHT22;2803;47.916;8.074;2022-12-18T05:16:19;-5.10;99.90
5560;DHT22;2803;47.916;8.074;2022-12-18T05:18:45;-5.00;99.90
5560;DHT22;2803;47.916;8.074;2022-12-18T05:21:12;-5.10;99.90
5560;DHT22;2803;47.916;8.074;2022-12-18T05:23:40;-5.20;99.90
5560;DHT22;2803;47.916;8.074;2022-12-18T05:26:07;-4.90;99.90
5560;DHT22;2803;47.916;8.074;2022-12-18T05:28:35;-5.00;99.90
5560;DHT22;2803;47.916;8.074;2022-12-18T05:31:03;-4.80;99.90
5560;DHT22;2803;47.916;8.074;2022-12-18T05:33:32;-4.80;99.90
5560;DHT22;2803;47.916;8.074;2022-12-18T05:36:05;-4.90;99.90
5560;DHT22;2803;47.916;8.074;2022-12-18T05:38:33;-4.80;99.90
5560;DHT22;2803;47.916;8.074;2022-12-18T05:41:01;-5.10;99.90
5560;DHT22;2803;47.916;8.074;2022-12-18T05:43:28;-5.30;99.90
5560;DHT22;2803;47.916;8.074;2022-12-18T05:45:55;-5.10;99.90
5560;DHT22;2803;47.916;8.074;2022-12-18T05:48:23;-5.20;99.90
5560;DHT22;2803;47.916;8.074;2022-12-18T05:50:50;-5.20;99.90
5560;DHT22;2803;47.916;8.074;2022-12-18T05:53:18;-5.20;99.90
5560;DHT22;2803;47.916;8.074;2022-12-18T05:55:45;-5.20;99.90
5560;DHT22;2803;47.916;8.074;2022-12-18T05:58:14;-5.10;99.90
5560;DHT22;2803;47.916;8.074;2022-12-18T06:00:43;-5.10;99.90
5560;DHT22;2803;47.916;8.074;2022-12-18T06:03:11;-5.20;99.90
5560;DHT22;2803;47.916;8.074;2022-12-18T06:05:41;-5.40;99.90
5560;DHT22;2803;47.916;8.074;2022-12-18T06:08:08;-5.40;99.90
5560;DHT22;2803;47.916;8.074;2022-12-18T06:10:35;-5.30;99.90
5560;DHT22;2803;47.916;8.074;2022-12-18T06:13:02;-5.10;99.90
5560;DHT22;2803;47.916;8.074;2022-12-18T06:15:30;-5.00;99.90
5560;DHT22;2803;47.916;8.074;2022-12-18T06:17:57;-4.90;99.90
5560;DHT22;2803;47.916;8.074;2022-12-18T06:20:23;-4.70;99.90
5560;DHT22;2803;47.916;8.074;2022-12-18T06:22:50;-4.80;99.90
5560;DHT22;2803;47.916;8.074;2022-12-18T06:25:17;-4.80;99.90
5560;DHT22;2803;47.916;8.074;2022-12-18T06:27:44;-5.00;99.90
5560;DHT22;2803;47.916;8.074;2022-12-18T06:30:13;-5.30;99.90
5560;DHT22;2803;47.916;8.074;2022-12-18T06:32:41;-5.10;99.90
5560;DHT22;2803;47.916;8.074;2022-12-18T06:35:08;-5.10;99.90
5560;DHT22;2803;47.916;8.074;2022-12-18T06:37:35;-5.30;99.90
5560;DHT22;2803;47.916;8.074;2022-12-18T06:40:01;-5.40;99.90
5560;DHT22;2803;47.916;8.074;2022-12-18T06:42:28;-5.50;99.90
5560;DHT22;2803;47.916;8.074;2022-12-18T06:44:55;-5.40;99.90
5560;DHT22;2803;47.916;8.074;2022-12-18T06:47:21;-5.50;99.90
5560;DHT22;2803;47.916;8.074;2022-12-18T06:49:49;-5.40;99.90
5560;DHT22;2803;47.916;8.074;2022-12-18T06:52:16;-5.30;99.90
5560;DHT22;2803;47.916;8.074;2022-12-18T06:54:42;-5.40;99.90
5560;DHT22;2803;47.916;8.074;2022-12-18T06:57:09;-5.40;99.90
5560;DHT22;2803;47.916;8.074;2022-12-18T06:59:36;-5.30;99.90
5560;DHT22;2803;47.916;8.074;2022-12-18T07:02:02;-5.50;99.90
5560;DHT22;2803;47.916;8.074;2022-12-18T07:04:30;-5.50;99.90
5560;DHT22;2803;47.916;8.074;2022-12-18T07:06:58;-5.30;99.90
5560;DHT22;2803;47.916;8.074;2022-12-18T07:09:25;-5.40;99.90
5560;DHT22;2803;47.916;8.074;2022-12-18T07:11:51;-5.70;99.90
5560;DHT22;2803;47.916;8.074;2022-12-18T07:14:18;-5.40;99.90
5560;DHT22;2803;47.916;8.074;2022-12-18T07:16:44;-5.30;99.90
5560;DHT22;2803;47.916;8.074;2022-12-18T07:19:11;-5.40;99.90
5560;DHT22;2803;47.916;8.074;2022-12-18T07:21:38;-5.50;99.90
5560;DHT22;2803;47.916;8.074;2022-12-18T07:24:06;-5.40;99.90
5560;DHT22;2803;47.916;8.074;2022-12-18T07:26:33;-5.30;99.90
5560;DHT22;2803;47.916;8.074;2022-12-18T07:28:59;-5.40;99.90
5560;DHT22;2803;47.916;8.074;2022-12-18T07:31:27;-5.30;99.90
5560;DHT22;2803;47.916;8.074;2022-12-18T07:33:53;-5.40;99.90
5560;DHT22;2803;47.916;8.074;2022-12-18T07:36:20;-5.50;99.90
5560;DHT22;2803;47.916;8.074;2022-12-18T07:38:47;-5.40;99.90
5560;DHT22;2803;47.916;8.074;2022-12-18T07:41:16;-5.40;99.90
5560;DHT22;2803;47.916;8.074;2022-12-18T07:43:44;-5.50;99.90
5560;DHT22;2803;47.916;8.074;2022-12-18T07:46:11;-5.40;99.90
5560;DHT22;2803;47.916;8.074;2022-12-18T07:48:39;-5.50;99.90
5560;DHT22;2803;47.916;8.074;2022-12-18T07:51:06;-5.60;99.90
5560;DHT22;2803;47.916;8.074;2022-12-18T07:53:33;-5.50;99.90
5560;DHT22;2803;47.916;8.074;2022-12-18T07:56:03;-5.70;99.90
5560;DHT22;2803;47.916;8.074;2022-12-18T07:58:32;-5.70;99.90
5560;DHT22;2803;47.916;8.074;2022-12-18T08:01:03;-5.80;99.90
5560;DHT22;2803;47.916;8.074;2022-12-18T08:03:29;-5.80;99.90
5560;DHT22;2803;47.916;8.074;2022-12-18T08:05:58;-5.90;99.90
5560;DHT22;2803;47.916;8.074;2022-12-18T08:08:25;-5.70;99.90
5560;DHT22;2803;47.916;8.074;2022-12-18T08:10:52;-5.70;99.90
5560;DHT22;2803;47.916;8.074;2022-12-18T08:13:18;-5.50;99.90
5560;DHT22;2803;47.916;8.074;2022-12-18T08:15:54;-5.50;99.90
5560;DHT22;2803;47.916;8.074;2022-12-18T08:18:22;-5.50;99.90
5560;DHT22;2803;47.916;8.074;2022-12-18T08:20:48;-5.50;99.90
5560;DHT22;2803;47.916;8.074;2022-12-18T08:23:16;-5.50;99.90
5560;DHT22;2803;47.916;8.074;2022-12-18T08:25:42;-5.70;99.90
5560;DHT22;2803;47.916;8.074;2022-12-18T08:28:09;-5.50;99.90
5560;DHT22;2803;47.916;8.074;2022-12-18T08:30:36;-5.80;99.90
5560;DHT22;2803;47.916;8.074;2022-12-18T08:33:04;-5.90;99.90
5560;DHT22;2803;47.916;8.074;2022-12-18T08:35:35;-5.60;99.90
5560;DHT22;2803;47.916;8.074;2022-12-18T08:38:02;-5.40;99.90
5560;DHT22;2803;47.916;8.074;2022-12-18T08:40:28;-5.40;99.90
5560;DHT22;2803;47.916;8.074;2022-12-18T08:42:55;-5.40;99.90
5560;DHT22;2803;47.916;8.074;2022-12-18T08:45:36;-5.20;99.90
5560;DHT22;2803;47.916;8.074;2022-12-18T08:48:04;-5.20;99.90
5560;DHT22;2803;47.916;8.074;2022-12-18T08:50:30;-5.20;99.90
5560;DHT22;2803;47.916;8.074;2022-12-18T08:52:57;-5.00;99.90
5560;DHT22;2803;47.916;8.074;2022-12-18T08:55:24;-4.80;99.90
5560;DHT22;2803;47.916;8.074;2022-12-18T08:57:51;-4.70;99.90
5560;DHT22;2803;47.916;8.074;2022-12-18T09:00:18;-4.70;99.90
5560;DHT22;2803;47.916;8.074;2022-12-18T09:02:45;-4.60;99.90
5560;DHT22;2803;47.916;8.074;2022-12-18T09:05:13;-5.10;99.90
5560;DHT22;2803;47.916;8.074;2022-12-18T09:07:40;-4.90;99.90
5560;DHT22;2803;47.916;8.074;2022-12-18T09:10:07;-4.70;99.90
5560;DHT22;2803;47.916;8.074;2022-12-18T09:12:33;-4.90;99.90
5560;DHT22;2803;47.916;8.074;2022-12-18T09:15:00;-4.50;99.90
5560;DHT22;2803;47.916;8.074;2022-12-18T09:17:27;-4.60;99.90
5560;DHT22;2803;47.916;8.074;2022-12-18T09:19:53;-4.40;99.90
5560;DHT22;2803;47.916;8.074;2022-12-18T09:22:21;-4.10;99.90
5560;DHT22;2803;47.916;8.074;2022-12-18T09:24:48;-4.00;99.90
5560;DHT22;2803;47.916;8.074;2022-12-18T09:27:15;-4.10;99.90
5560;DHT22;2803;47.916;8.074;2022-12-18T09:29:42;-4.10;99.90
5560;DHT22;2803;47.916;8.074;2022-12-18T09:32:08;-3.90;99.90
5560;DHT22;2803;47.916;8.074;2022-12-18T09:34:35;-3.90;99.90
5560;DHT22;2803;47.916;8.074;2022-12-18T09:37:02;-3.80;99.90
5560;DHT22;2803;47.916;8.074;2022-12-18T09:39:30;-3.50;99.90
5560;DHT22;2803;47.916;8.074;2022-12-18T09:41:57;-3.50;99.90
5560;DHT22;2803;47.916;8.074;2022-12-18T09:44:26;-3.50;99.90
5560;DHT22;2803;47.916;8.074;2022-12-18T09:46:59;-3.20;99.90
5560;DHT22;2803;47.916;8.074;2022-12-18T09:49:30;-3.00;99.90
5560;DHT22;2803;47.916;8.074;2022-12-18T09:52:02;-2.90;99.90
5560;DHT22;2803;47.916;8.074;2022-12-18T09:54:35;-2.80;99.90
5560;DHT22;2803;47.916;8.074;2022-12-18T09:57:02;-2.80;99.90
5560;DHT22;2803;47.916;8.074;2022-12-18T09:59:33;-2.90;99.90
5560;DHT22;2803;47.916;8.074;2022-12-18T10:02:14;-3.00;99.90
5560;DHT22;2803;47.916;8.074;2022-12-18T10:04:41;-2.50;99.90
5560;DHT22;2803;47.916;8.074;2022-12-18T10:07:13;-2.40;99.90
5560;DHT22;2803;47.916;8.074;2022-12-18T10:09:47;-2.30;99.90
5560;DHT22;2803;47.916;8.074;2022-12-18T10:12:22;-2.00;99.90
5560;DHT22;2803;47.916;8.074;2022-12-18T10:14:54;-1.40;99.90
5560;DHT22;2803;47.916;8.074;2022-12-18T10:17:27;-1.00;99.90
5560;DHT22;2803;47.916;8.074;2022-12-18T10:19:57;-0.50;99.90
5560;DHT22;2803;47.916;8.074;2022-12-18T10:22:35;0.60;99.90
5560;DHT22;2803;47.916;8.074;2022-12-18T10:25:15;1.10;99.90
5560;DHT22;2803;47.916;8.074;2022-12-18T10:27:44;2.00;99.90
5560;DHT22;2803;47.916;8.074;2022-12-18T10:30:13;2.50;99.90
5560;DHT22;2803;47.916;8.074;2022-12-18T10:32:41;2.80;99.90
5560;DHT22;2803;47.916;8.074;2022-12-18T10:35:17;3.10;99.90
5560;DHT22;2803;47.916;8.074;2022-12-18T10:38:04;3.00;99.90
5560;DHT22;2803;47.916;8.074;2022-12-18T10:40:32;3.00;99.90
5560;DHT22;2803;47.916;8.074;2022-12-18T10:43:04;3.40;99.90
5560;DHT22;2803;47.916;8.074;2022-12-18T10:45:31;2.90;99.90
5560;DHT22;2803;47.916;8.074;2022-12-18T10:47:58;2.40;99.90
5560;DHT22;2803;47.916;8.074;2022-12-18T10:50:29;1.90;99.90
5560;DHT22;2803;47.916;8.074;2022-12-18T10:52:57;1.70;99.90
5560;DHT22;2803;47.916;8.074;2022-12-18T10:55:29;1.30;99.90
5560;DHT22;2803;47.916;8.074;2022-12-18T10:58:15;0.70;99.90
5560;DHT22;2803;47.916;8.074;2022-12-18T11:00:42;0.20;99.90
5560;DHT22;2803;47.916;8.074;2022-12-18T11:03:30;-0.20;99.90
5560;DHT22;2803;47.916;8.074;2022-12-18T11:06:04;-0.20;99.90
5560;DHT22;2803;47.916;8.074;2022-12-18T11:08:31;-0.30;99.90
5560;DHT22;2803;47.916;8.074;2022-12-18T11:10:58;-0.40;99.90
5560;DHT22;2803;47.916;8.074;2022-12-18T11:13:28;-0.30;99.90
5560;DHT22;2803;47.916;8.074;2022-12-18T11:15:56;-0.20;99.90
5560;DHT22;2803;47.916;8.074;2022-12-18T11:18:27;-0.10;99.90
5560;DHT22;2803;47.916;8.074;2022-12-18T11:20:56;0.10;99.90
5560;DHT22;2803;47.916;8.074;2022-12-18T11:23:24;0.10;99.90
5560;DHT22;2803;47.916;8.074;2022-12-18T11:25:53;0.00;99.90
5560;DHT22;2803;47.916;8.074;2022-12-18T11:28:37;0.00;99.90
5560;DHT22;2803;47.916;8.074;2022-12-18T11:31:16;0.00;99.90
5560;DHT22;2803;47.916;8.074;2022-12-18T11:33:46;0.30;99.90
5560;DHT22;2803;47.916;8.074;2022-12-18T11:36:16;0.40;99.90
5560;DHT22;2803;47.916;8.074;2022-12-18T11:38:45;0.30;99.90
5560;DHT22;2803;47.916;8.074;2022-12-18T11:41:19;0.70;99.90
5560;DHT22;2803;47.916;8.074;2022-12-18T11:43:52;0.70;99.90
5560;DHT22;2803;47.916;8.074;2022-12-18T11:46:36;0.80;99.90
5560;DHT22;2803;47.916;8.074;2022-12-18T11:49:10;0.80;99.90
5560;DHT22;2803;47.916;8.074;2022-12-18T11:51:45;0.90;99.90
5560;DHT22;2803;47.916;8.074;2022-12-18T11:54:15;1.00;99.90
5560;DHT22;2803;47.916;8.074;2022-12-18T11:56:46;1.00;99.90
5560;DHT22;2803;47.916;8.074;2022-12-18T11:59:20;1.00;99.90
5560;DHT22;2803;47.916;8.074;2022-12-18T12:01:53;1.10;99.90
5560;DHT22;2803;47.916;8.074;2022-12-18T12:07:23;1.30;99.90
5560;DHT22;2803;47.916;8.074;2022-12-18T12:10:05;1.50;99.90
5560;DHT22;2803;47.916;8.074;2022-12-18T12:12:43;0.80;99.90
5560;DHT22;2803;47.916;8.074;2022-12-18T12:15:23;1.40;99.90
5560;DHT22;2803;47.916;8.074;2022-12-18T12:17:55;1.40;99.90
5560;DHT22;2803;47.916;8.074;2022-12-18T12:20:31;1.90;99.90
5560;DHT22;2803;47.916;8.074;2022-12-18T12:23:11;1.90;99.90
5560;DHT22;2803;47.916;8.074;2022-12-18T12:25:46;1.80;99.90
5560;DHT22;2803;47.916;8.074;2022-12-18T12:28:35;1.50;99.90
5560;DHT22;2803;47.916;8.074;2022-12-18T12:31:11;1.90;99.90
5560;DHT22;2803;47.916;8.074;2022-12-18T12:33:43;2.10;99.90
5560;DHT22;2803;47.916;8.074;2022-12-18T12:36:16;2.50;99.90
5560;DHT22;2803;47.916;8.074;2022-12-18T12:38:50;1.90;99.90
5560;DHT22;2803;47.916;8.074;2022-12-18T12:41:20;1.60;99.90
5560;DHT22;2803;47.916;8.074;2022-12-18T12:44:06;1.80;99.90
5560;DHT22;2803;47.916;8.074;2022-12-18T12:46:37;2.10;99.90
5560;DHT22;2803;47.916;8.074;2022-12-18T12:49:11;2.10;99.90
5560;DHT22;2803;47.916;8.074;2022-12-18T12:51:40;2.20;99.90
5560;DHT22;2803;47.916;8.074;2022-12-18T12:54:14;2.00;99.90
5560;DHT22;2803;47.916;8.074;2022-12-18T12:56:45;2.50;99.90
5560;DHT22;2803;47.916;8.074;2022-12-18T12:59:21;2.60;99.90
5560;DHT22;2803;47.916;8.074;2022-12-18T13:01:54;2.50;99.90
5560;DHT22;2803;47.916;8.074;2022-12-18T13:04:29;2.10;99.90
5560;DHT22;2803;47.916;8.074;2022-12-18T13:07:01;2.40;99.90
5560;DHT22;2803;47.916;8.074;2022-12-18T13:09:30;2.00;99.90
5560;DHT22;2803;47.916;8.074;2022-12-18T13:12:02;2.00;99.90
5560;DHT22;2803;47.916;8.074;2022-12-18T13:14:43;2.00;99.90
5560;DHT22;2803;47.916;8.074;2022-12-18T13:17:27;1.90;99.90
5560;DHT22;2803;47.916;8.074;2022-12-18T13:20:06;2.10;99.90
5560;DHT22;2803;47.916;8.074;2022-12-18T13:22:35;2.20;99.90
5560;DHT22;2803;47.916;8.074;2022-12-18T13:25:03;2.60;99.90
5560;DHT22;2803;47.916;8.074;2022-12-18T13:27:59;2.20;99.90
5560;DHT22;2803;47.916;8.074;2022-12-18T13:30:46;2.40;99.90
5560;DHT22;2803;47.916;8.074;2022-12-18T13:33:39;2.20;99.90
5560;DHT22;2803;47.916;8.074;2022-12-18T13:36:16;2.40;99.90
5560;DHT22;2803;47.916;8.074;2022-12-18T13:38:43;2.50;99.90
5560;DHT22;2803;47.916;8.074;2022-12-18T13:41:26;2.40;99.90
5560;DHT22;2803;47.916;8.074;2022-12-18T13:43:54;2.40;99.90
5560;DHT22;2803;47.916;8.074;2022-12-18T13:46:25;2.50;99.90
5560;DHT22;2803;47.916;8.074;2022-12-18T13:48:58;2.30;99.90
5560;DHT22;2803;47.916;8.074;2022-12-18T13:51:27;2.10;99.90
5560;DHT22;2803;47.916;8.074;2022-12-18T13:53:57;2.10;99.90
5560;DHT22;2803;47.916;8.074;2022-12-18T13:56:26;1.70;99.90
5560;DHT22;2803;47.916;8.074;2022-12-18T13:59:11;1.70;99.90
5560;DHT22;2803;47.916;8.074;2022-12-18T14:01:43;1.70;99.90
5560;DHT22;2803;47.916;8.074;2022-12-18T14:04:16;2.00;99.90
5560;DHT22;2803;47.916;8.074;2022-12-18T14:06:44;1.60;99.90
5560;DHT22;2803;47.916;8.074;2022-12-18T14:09:14;1.30;99.90
5560;DHT22;2803;47.916;8.074;2022-12-18T14:11:46;1.70;99.90
5560;DHT22;2803;47.916;8.074;2022-12-18T14:14:14;2.00;99.90
5560;DHT22;2803;47.916;8.074;2022-12-18T14:16:41;2.00;99.90
5560;DHT22;2803;47.916;8.074;2022-12-18T14:19:12;2.00;99.90
5560;DHT22;2803;47.916;8.074;2022-12-18T14:21:40;2.30;99.90
5560;DHT22;2803;47.916;8.074;2022-12-18T14:24:16;2.20;99.90
5560;DHT22;2803;47.916;8.074;2022-12-18T14:26:44;2.30;99.90
5560;DHT22;2803;47.916;8.074;2022-12-18T14:29:21;2.00;99.90
5560;DHT22;2803;47.916;8.074;2022-12-18T14:32:04;1.90;99.90
5560;DHT22;2803;47.916;8.074;2022-12-18T14:34:32;1.90;99.90
5560;DHT22;2803;47.916;8.074;2022-12-18T14:36:59;1.70;99.90
5560;DHT22;2803;47.916;8.074;2022-12-18T14:39:25;1.70;99.90
5560;DHT22;2803;47.916;8.074;2022-12-18T14:41:52;1.80;99.90
5560;DHT22;2803;47.916;8.074;2022-12-18T14:44:19;1.50;99.90
5560;DHT22;2803;47.916;8.074;2022-12-18T14:46:47;1.70;99.90
5560;DHT22;2803;47.916;8.074;2022-12-18T14:49:21;1.90;99.90
5560;DHT22;2803;47.916;8.074;2022-12-18T14:51:52;1.90;99.90
5560;DHT22;2803;47.916;8.074;2022-12-18T14:54:20;1.80;99.90
5560;DHT22;2803;47.916;8.074;2022-12-18T14:56:48;1.60;99.90
5560;DHT22;2803;47.916;8.074;2022-12-18T14:59:18;1.70;99.90
5560;DHT22;2803;47.916;8.074;2022-12-18T15:01:51;1.80;99.90
5560;DHT22;2803;47.916;8.074;2022-12-18T15:04:26;1.50;99.90
5560;DHT22;2803;47.916;8.074;2022-12-18T15:07:06;1.30;99.90
5560;DHT22;2803;47.916;8.074;2022-12-18T15:09:34;1.30;99.90
5560;DHT22;2803;47.916;8.074;2022-12-18T15:12:01;1.10;99.90
5560;DHT22;2803;47.916;8.074;2022-12-18T15:14:33;1.10;99.90
5560;DHT22;2803;47.916;8.074;2022-12-18T15:17:03;0.90;99.90
5560;DHT22;2803;47.916;8.074;2022-12-18T15:19:36;0.80;99.90
5560;DHT22;2803;47.916;8.074;2022-12-18T15:22:16;1.00;99.90
5560;DHT22;2803;47.916;8.074;2022-12-18T15:24:44;1.10;99.90
5560;DHT22;2803;47.916;8.074;2022-12-18T15:27:20;1.00;99.90
5560;DHT22;2803;47.916;8.074;2022-12-18T15:30:00;0.80;99.90
5560;DHT22;2803;47.916;8.074;2022-12-18T15:32:27;0.90;99.90
5560;DHT22;2803;47.916;8.074;2022-12-18T15:35:02;0.90;99.90
5560;DHT22;2803;47.916;8.074;2022-12-18T15:37:30;0.90;99.90
5560;DHT22;2803;47.916;8.074;2022-12-18T15:39:57;1.00;99.90
5560;DHT22;2803;47.916;8.074;2022-12-18T15:42:25;1.00;99.90
5560;DHT22;2803;47.916;8.074;2022-12-18T15:45:07;1.50;99.90
5560;DHT22;2803;47.916;8.074;2022-12-18T15:47:34;1.30;99.90
5560;DHT22;2803;47.916;8.074;2022-12-18T15:50:01;1.10;99.90
5560;DHT22;2803;47.916;8.074;2022-12-18T15:52:30;0.70;99.90
5560;DHT22;2803;47.916;8.074;2022-12-18T15:54:57;1.00;99.90
5560;DHT22;2803;47.916;8.074;2022-12-18T15:57:38;1.30;99.90
5560;DHT22;2803;47.916;8.074;2022-12-18T16:00:05;1.40;99.90
5560;DHT22;2803;47.916;8.074;2022-12-18T16:02:32;1.50;99.90
5560;DHT22;2803;47.916;8.074;2022-12-18T16:04:59;1.40;99.90
5560;DHT22;2803;47.916;8.074;2022-12-18T16:07:25;1.00;99.90
5560;DHT22;2803;47.916;8.074;2022-12-18T16:09:54;1.10;99.90
5560;DHT22;2803;47.916;8.074;2022-12-18T16:12:22;1.10;99.90
5560;DHT22;2803;47.916;8.074;2022-12-18T16:14:50;1.30;99.90
5560;DHT22;2803;47.916;8.074;2022-12-18T16:17:17;1.20;99.90
5560;DHT22;2803;47.916;8.074;2022-12-18T16:19:44;1.00;99.90
5560;DHT22;2803;47.916;8.074;2022-12-18T16:22:18;1.10;99.90
5560;DHT22;2803;47.916;8.074;2022-12-18T16:24:47;1.40;99.90
5560;DHT22;2803;47.916;8.074;2022-12-18T16:27:15;1.10;99.90